Skip Navigation Links
NOAA logo - Click to go to the NOAA homepage
NOAA's National Weather Service
Alaska Aviation Weather Unit
  NWS logo - Click to go to the NWS homepage
Left Navbar Graphic     12 AKDT = 20 GMT

   
NOAA is celebrating 200 years of science, service, and stewardship. Visit the NOAA 200th celebration Web site to learn more.
USA.gov is the U.S. Government's official Web portal to all Federal, state and local government Web resources and services.
Facebook
NWS on Facebook

Important Change Regarding the AAWU Web Presence

 

Over the last several months, the AAWU has been working to navigate its webpages to a nationally supported server. Security, as well as other needs, have necessitated the change.  We have been given an extension for the site changeover while we diligently work at addressing feedback received. As of July 14, 2017, aawu.arh.noaa.gov will be discontinued. The new AAWU web address is weather.gov/aawu. It is now live and will run in-parallel with the old site until it is discontinued on July 14, 2017. Please continue to send any feedback or questions regarding the new webpages to nws.ar.aawu.webauthors@noaa.gov.  Thank you for your patience during this time of transition.
AAWU Home :: Display TAF Add Bookmark
TAF PAOR 251739Z 2518/2618 31005KT P6SM SCT025 BKN100
     FM252000 30005KT P6SM -SHRA SCT025 BKN060 OVC100
     FM260100 30004KT P6SM VCTS SCT060CB BKN100
     FM260400 32004KT P6SM VCSH SCT060 BKN100=
METAR PAOR 251453Z AUTO 31006KT 10SM BKN045 OVC065 13/11 A2995=

METAR PAOR 251553Z AUTO 31006KT 10SM BKN043 OVC065 13/11 A2995=

METAR PAOR 251653Z 31006KT 10SM BKN045 OVC075 14/11 A2995=

METAR PAOR 251753Z 31005KT 10SM -RA SCT030 BKN045 OVC080 13/12 A2994=

METAR PAOR 251853Z 32005KT 10SM SCT041 BKN055 OVC080 14/13 A2994=

METAR PAOR 251953Z 34005KT 10SM BKN041 BKN055 OVC080 16/13 A2993 RMK AO2
     SLP133 T01560133=


NOAA's National Weather Service
Alaska Aviation Weather Unit
6930 Sand Lake Road
Anchorage, AK 99502-1845
Disclaimer
Credits
Glossary
Privacy Policy
About Us
Career Opportunities
Contact AAWU Internet Services Site last modified: April, 17th 2012